Sandoval, Illinois
Current Conditions -  °F | °C
As of 4:15 PM on Monday 20 Oct 2014 (Local Time) from KENL Reporting Station
Clear Clear  
Wind Chill: 72°   Ceiling: Unl
Heat Index: 72°   Visibility: 10mi
Dew Point: 44°   Wind: 10mph
Humidity: 36%   Direction: 300°WNW
Pressure: 29.91"   Gusts: 17mph
Location:  38.62°N, 89.11°W
Report Text: KENL 202115Z AUTO 30009G15KT 10SM CLR 22/06 A2991 RMK AO2 T02220064
Loading
Personal Weather Stations






























Interactive Weather Map
Tropical Storm Tracking
New forecast layout! Learn more

10-Day Weather Forecast

Advertisements
Track Severe Weather on mobile